createdAt,value
2022-09-24T00:02:01.473Z,10.80
2022-09-24T00:04:33.748Z,11.00
2022-09-24T00:07:04.129Z,11.60
2022-09-24T00:09:35.425Z,9.60
2022-09-24T00:12:08.449Z,11.80
2022-09-24T00:14:39.350Z,10.40
2022-09-24T00:17:14.449Z,12.00
2022-09-24T00:19:48.551Z,11.60
2022-09-24T00:22:22.907Z,9.40
2022-09-24T00:25:13.136Z,11.00
2022-09-24T00:27:47.557Z,9.60
2022-09-24T00:30:18.738Z,11.00
2022-09-24T00:32:52.880Z,10.60
2022-09-24T00:35:26.729Z,12.00
2022-09-24T00:38:00.407Z,12.00
2022-09-24T00:40:36.102Z,10.20
2022-09-24T00:43:26.915Z,10.00
2022-09-24T00:46:11.527Z,10.60
2022-09-24T00:48:42.668Z,11.80
2022-09-24T00:51:20.054Z,11.20
2022-09-24T00:53:56.115Z,10.00
2022-09-24T00:56:28.833Z,11.40
2022-09-24T00:59:04.679Z,9.00
2022-09-24T01:01:35.778Z,10.60
2022-09-24T01:04:08.748Z,11.20
2022-09-24T01:06:39.689Z,10.00
2022-09-24T01:09:10.737Z,11.00
2022-09-24T01:12:06.230Z,9.40
2022-09-24T01:14:43.068Z,9.60
2022-09-24T01:17:37.845Z,11.00
2022-09-24T01:20:36.215Z,11.00
2022-09-24T01:23:17.371Z,10.80
2022-09-24T01:25:55.567Z,8.40
2022-09-24T01:29:06.934Z,12.20
2022-09-24T01:31:42.584Z,12.00
2022-09-24T01:34:16.972Z,10.80
2022-09-24T01:36:53.567Z,11.40
2022-09-24T01:39:26.642Z,11.80
2022-09-24T01:41:58.298Z,13.80
2022-09-24T01:44:28.920Z,14.00
2022-09-24T01:47:01.150Z,9.50
2022-09-24T01:49:32.391Z,13.20
2022-09-24T01:53:08.935Z,13.50
2022-09-24T01:56:03.517Z,10.60
2022-09-24T01:59:03.494Z,12.40
2022-09-24T02:01:52.800Z,13.80
2022-09-24T02:04:27.791Z,12.40
2022-09-24T02:07:17.627Z,12.40
2022-09-24T02:09:47.224Z,11.00
2022-09-24T02:12:38.808Z,13.40
2022-09-24T02:15:19.586Z,15.00
2022-09-24T02:17:56.577Z,13.80
2022-09-24T02:20:29.366Z,14.00
2022-09-24T02:23:01.336Z,13.00
2022-09-24T02:25:43.267Z,12.80
2022-09-24T02:28:13.098Z,14.20
2022-09-24T02:30:51.243Z,13.60
2022-09-24T02:33:46.261Z,13.80
2022-09-24T02:36:18.506Z,11.40
2022-09-24T02:38:51.235Z,13.00
2022-09-24T02:41:24.793Z,12.80
2022-09-24T02:43:58.246Z,14.25
2022-09-24T02:46:28.185Z,14.20
2022-09-24T02:49:04.453Z,11.50
2022-09-24T02:51:35.450Z,15.20
2022-09-24T02:54:06.176Z,12.40
2022-09-24T02:56:39.201Z,16.25
2022-09-24T02:59:10.945Z,16.00
2022-09-24T03:01:43.759Z,16.00
2022-09-24T03:04:15.754Z,13.75
2022-09-24T03:06:48.097Z,14.00
2022-09-24T03:09:21.489Z,15.25
2022-09-24T03:11:54.150Z,14.25
2022-09-24T03:14:30.201Z,13.25
2022-09-24T03:17:05.080Z,14.00
2022-09-24T03:19:39.131Z,15.75
2022-09-24T03:22:12.417Z,14.75
2022-09-24T03:24:44.702Z,15.50
2022-09-24T03:27:17.898Z,15.50
2022-09-24T03:30:09.070Z,15.50
2022-09-24T03:32:43.107Z,15.25
2022-09-24T03:35:15.232Z,15.00
2022-09-24T03:37:50.172Z,14.75
2022-09-24T03:40:27.009Z,14.75
2022-09-24T03:42:59.650Z,12.00
2022-09-24T03:45:32.330Z,11.75
2022-09-24T03:48:08.164Z,8.25
2022-09-24T03:50:42.873Z,12.75
2022-09-24T03:53:17.392Z,13.75
2022-09-24T03:55:57.384Z,12.75
2022-09-24T03:58:34.072Z,13.20
2022-09-24T04:01:05.613Z,14.75
2022-09-24T04:03:39.744Z,12.75
2022-09-24T04:06:13.698Z,14.75
2022-09-24T04:08:49.020Z,9.25
2022-09-24T04:11:20.449Z,14.50
2022-09-24T04:13:58.376Z,11.00
2022-09-24T04:16:32.202Z,16.00
2022-09-24T04:19:05.397Z,17.00
2022-09-24T04:21:43.131Z,14.00
2022-09-24T04:24:17.032Z,13.00
2022-09-24T04:26:49.779Z,16.00
2022-09-24T04:29:21.397Z,15.50
2022-09-24T04:31:57.399Z,16.00
2022-09-24T04:34:31.013Z,16.25
2022-09-24T04:37:08.973Z,14.00
2022-09-24T04:39:44.578Z,14.75
2022-09-24T04:42:24.789Z,14.00
2022-09-24T04:44:56.236Z,16.00
2022-09-24T04:47:29.899Z,15.50
2022-09-24T04:50:06.741Z,16.50
2022-09-24T04:52:40.375Z,14.00
2022-09-24T04:55:12.195Z,15.25
2022-09-24T04:57:46.255Z,15.50
2022-09-24T05:00:24.881Z,16.00
2022-09-24T05:03:00.228Z,15.00
2022-09-24T05:05:33.530Z,16.00
2022-09-24T05:08:06.971Z,12.00
2022-09-24T05:10:40.467Z,14.75
2022-09-24T05:13:09.802Z,15.50
2022-09-24T05:15:42.965Z,15.50
2022-09-24T05:18:15.437Z,15.00
2022-09-24T05:20:45.707Z,14.25
2022-09-24T05:23:15.748Z,17.00
2022-09-24T05:26:04.064Z,15.50
2022-09-24T05:28:33.927Z,14.00
2022-09-24T05:31:03.867Z,14.25
2022-09-24T05:33:35.182Z,15.75
2022-09-24T05:36:05.470Z,13.33
2022-09-24T05:38:41.736Z,13.50
2022-09-24T05:41:12.652Z,15.25
2022-09-24T05:43:42.933Z,14.25
2022-09-24T05:46:14.934Z,15.75
2022-09-24T05:48:47.885Z,14.75
2022-09-24T05:51:20.845Z,15.75
2022-09-24T05:53:51.283Z,14.75
2022-09-24T05:56:21.115Z,15.25
2022-09-24T05:58:51.464Z,16.00
2022-09-24T06:01:21.981Z,16.25
2022-09-24T06:03:53.920Z,16.00
2022-09-24T06:06:26.900Z,14.00
2022-09-24T06:08:58.224Z,16.25
2022-09-24T06:11:30.830Z,14.25
2022-09-24T06:14:06.850Z,15.75
2022-09-24T06:16:37.643Z,16.00
2022-09-24T06:19:15.220Z,15.25
2022-09-24T06:21:45.618Z,16.00
2022-09-24T06:24:17.022Z,12.25
2022-09-24T06:26:49.268Z,14.00
2022-09-24T06:29:19.345Z,15.00
2022-09-24T06:31:51.066Z,14.50
2022-09-24T06:34:23.239Z,13.75
2022-09-24T06:36:56.227Z,15.25
2022-09-24T06:39:27.975Z,16.50
2022-09-24T06:42:00.320Z,11.25
2022-09-24T06:44:38.619Z,14.50
2022-09-24T06:47:09.196Z,15.75
2022-09-24T06:49:38.939Z,13.00
2022-09-24T06:52:09.285Z,16.00
2022-09-24T06:54:40.276Z,14.00
2022-09-24T06:57:13.242Z,15.25
2022-09-24T06:59:42.693Z,16.00
2022-09-24T07:02:12.968Z,14.75
2022-09-24T07:04:45.038Z,14.00
2022-09-24T07:07:30.203Z,13.00
2022-09-24T07:10:02.685Z,16.25
2022-09-24T07:12:37.968Z,13.00
2022-09-24T07:15:09.228Z,13.25
2022-09-24T07:17:38.802Z,11.50
2022-09-24T07:20:10.651Z,15.00
2022-09-24T07:22:41.092Z,16.25
2022-09-24T07:25:13.654Z,13.50
2022-09-24T07:27:46.112Z,15.00
2022-09-24T07:30:18.466Z,15.75
2022-09-24T07:32:51.559Z,14.25
2022-09-24T07:35:24.733Z,15.00
2022-09-24T07:38:03.658Z,14.00
2022-09-24T07:40:34.260Z,16.50
2022-09-24T07:43:08.125Z,14.25
2022-09-24T07:45:38.173Z,13.50
2022-09-24T07:48:10.071Z,15.25
2022-09-24T07:50:43.038Z,14.25
2022-09-24T07:53:13.863Z,15.50
2022-09-24T07:55:47.305Z,12.75
2022-09-24T07:58:17.080Z,15.50
2022-09-24T08:00:49.067Z,14.00
2022-09-24T08:03:18.599Z,15.00
2022-09-24T08:05:49.016Z,12.50
2022-09-24T08:08:21.362Z,12.50
2022-09-24T08:10:55.106Z,15.25
2022-09-24T08:13:27.925Z,12.00
2022-09-24T08:16:01.472Z,14.75
2022-09-24T08:18:32.766Z,12.75
2022-09-24T08:21:12.576Z,13.00
2022-09-24T08:23:45.243Z,12.00
2022-09-24T08:26:17.447Z,12.25
2022-09-24T08:28:52.558Z,12.50
2022-09-24T08:31:22.556Z,13.75
2022-09-24T08:33:54.105Z,13.25
2022-09-24T08:36:24.593Z,13.00
2022-09-24T08:38:56.018Z,13.25
2022-09-24T08:41:52.093Z,13.75
2022-09-24T08:44:48.660Z,10.50
2022-09-24T08:47:59.019Z,12.50
2022-09-24T08:50:36.622Z,12.50
2022-09-24T08:53:19.865Z,13.00
2022-09-24T08:56:02.620Z,12.50
2022-09-24T08:58:54.991Z,13.50
2022-09-24T09:01:34.349Z,14.75
2022-09-24T09:04:25.734Z,12.00
2022-09-24T09:07:04.102Z,11.00
2022-09-24T09:09:47.440Z,11.00
2022-09-24T09:12:27.266Z,12.50
2022-09-24T09:15:08.072Z,13.50
2022-09-24T09:17:53.137Z,13.25
2022-09-24T09:20:37.752Z,13.00
2022-09-24T09:23:39.136Z,13.75
2022-09-24T09:26:13.360Z,14.25
2022-09-24T09:28:44.960Z,10.25
2022-09-24T09:31:21.103Z,13.00
2022-09-24T09:34:11.074Z,13.00
2022-09-24T09:37:02.394Z,13.00
2022-09-24T09:39:34.944Z,10.00
2022-09-24T09:42:30.543Z,12.25
2022-09-24T09:45:11.155Z,12.00
2022-09-24T09:48:00.624Z,13.00
2022-09-24T09:50:46.451Z,10.25
2022-09-24T09:53:32.005Z,11.25
2022-09-24T09:56:06.185Z,12.75
2022-09-24T09:58:54.969Z,12.50
2022-09-24T10:01:35.520Z,13.75
2022-09-24T10:04:08.344Z,14.75
2022-09-24T10:06:41.527Z,13.75
2022-09-24T10:09:23.110Z,14.00
2022-09-24T10:11:54.627Z,13.00
2022-09-24T10:14:33.407Z,12.00
2022-09-24T10:17:06.728Z,15.00
2022-09-24T10:19:39.841Z,14.50
2022-09-24T10:22:22.658Z,13.00
2022-09-24T10:24:56.882Z,12.00
2022-09-24T10:27:38.414Z,10.75
2022-09-24T10:30:34.831Z,12.25
2022-09-24T10:33:10.968Z,9.00
2022-09-24T10:35:40.266Z,14.00
2022-09-24T10:38:28.188Z,12.50
2022-09-24T10:41:00.319Z,13.50
2022-09-24T10:43:33.020Z,14.00
2022-09-24T10:46:35.422Z,14.25
2022-09-24T10:49:32.069Z,11.75
2022-09-24T10:52:14.221Z,14.25
2022-09-24T10:54:56.989Z,13.00
2022-09-24T10:57:35.867Z,12.50
2022-09-24T11:00:21.054Z,13.00
2022-09-24T11:03:46.220Z,14.25
2022-09-24T11:06:36.306Z,12.75
2022-09-24T11:09:38.545Z,11.50
2022-09-24T11:12:24.866Z,13.00
2022-09-24T11:15:20.774Z,11.75
2022-09-24T11:18:03.861Z,13.00
2022-09-24T11:20:40.493Z,11.25
2022-09-24T11:23:29.492Z,12.25
2022-09-24T11:26:28.022Z,13.25
2022-09-24T11:29:37.407Z,11.75
2022-09-24T11:32:33.775Z,13.00
2022-09-24T11:35:22.618Z,12.50
2022-09-24T11:38:11.350Z,11.75
2022-09-24T11:40:48.165Z,12.75
2022-09-24T11:43:22.224Z,13.00
2022-09-24T11:46:02.758Z,12.00
2022-09-24T11:48:48.140Z,10.25
2022-09-24T11:51:38.226Z,13.25
2022-09-24T11:54:27.459Z,12.50
2022-09-24T11:57:04.280Z,12.00
2022-09-24T11:59:40.186Z,13.25
2022-09-24T12:02:30.464Z,13.75
2022-09-24T12:05:20.621Z,11.00
2022-09-24T12:08:11.399Z,12.75
2022-09-24T12:10:50.175Z,12.50
2022-09-24T12:13:32.768Z,11.00
2022-09-24T12:16:22.933Z,10.75
2022-09-24T12:18:59.124Z,12.25
2022-09-24T12:21:41.343Z,13.50
2022-09-24T12:24:34.888Z,13.75
2022-09-24T12:27:13.859Z,13.50
2022-09-24T12:30:27.702Z,12.50
2022-09-24T12:33:09.042Z,12.25
2022-09-24T12:35:50.930Z,13.25
2022-09-24T12:38:31.250Z,13.25
2022-09-24T12:41:25.677Z,12.25
2022-09-24T12:44:29.650Z,14.00
2022-09-24T12:47:01.809Z,10.00
2022-09-24T12:49:36.769Z,12.25
2022-09-24T12:52:31.533Z,12.25
2022-09-24T12:55:08.678Z,11.50
2022-09-24T12:57:43.729Z,13.00
2022-09-24T13:00:58.710Z,16.00
2022-09-24T13:03:43.230Z,13.75
2022-09-24T13:06:37.752Z,12.75
2022-09-24T13:09:37.742Z,10.75
2022-09-24T13:12:19.850Z,13.25
2022-09-24T13:15:03.392Z,13.25
2022-09-24T13:17:36.771Z,10.00
2022-09-24T13:20:24.116Z,13.00
2022-09-24T13:23:22.550Z,13.50
2022-09-24T13:26:07.298Z,11.25
2022-09-24T13:28:52.304Z,13.75
2022-09-24T13:31:32.677Z,12.75
2022-09-24T13:34:12.424Z,14.00
2022-09-24T13:37:08.362Z,11.25
2022-09-24T13:39:57.961Z,13.00
2022-09-24T13:42:34.281Z,13.00
2022-09-24T13:45:17.193Z,11.75
2022-09-24T13:48:07.682Z,12.50
2022-09-24T13:50:46.268Z,12.00
2022-09-24T13:53:29.401Z,11.75
2022-09-24T13:56:08.841Z,11.50
2022-09-24T13:58:40.340Z,12.25
2022-09-24T14:01:21.633Z,9.25
2022-09-24T14:03:57.742Z,10.50
2022-09-24T14:06:40.786Z,11.00
2022-09-24T14:09:52.739Z,9.00
2022-09-24T14:12:29.153Z,9.75
2022-09-24T14:15:05.331Z,9.50
2022-09-24T14:17:35.619Z,10.00
2022-09-24T14:20:06.303Z,10.75
2022-09-24T14:22:42.831Z,11.25
2022-09-24T14:25:22.435Z,10.25
2022-09-24T14:27:53.573Z,11.25
2022-09-24T14:30:30.043Z,10.00
2022-09-24T14:33:07.899Z,8.50
2022-09-24T14:35:40.661Z,9.50
2022-09-24T14:38:53.388Z,9.75
2022-09-24T14:41:27.509Z,10.25
2022-09-24T14:44:08.788Z,8.25
2022-09-24T14:46:53.866Z,10.00
2022-09-24T14:49:44.677Z,10.00
2022-09-24T14:52:32.437Z,9.50
2022-09-24T14:55:23.085Z,9.00
2022-09-24T14:57:56.928Z,8.25
2022-09-24T15:00:58.858Z,11.00
2022-09-24T15:03:59.246Z,10.00
2022-09-24T15:06:36.390Z,8.75
2022-09-24T15:09:20.662Z,9.75
2022-09-24T15:11:56.235Z,9.00
2022-09-24T15:14:37.529Z,9.00
2022-09-24T15:17:26.864Z,10.00
2022-09-24T15:19:58.804Z,9.25
2022-09-24T15:22:34.349Z,7.75
2022-09-24T15:25:06.028Z,9.00
2022-09-24T15:27:39.594Z,7.00
2022-09-24T15:30:12.306Z,8.25
2022-09-24T15:32:44.821Z,8.00
2022-09-24T15:35:17.725Z,8.50
2022-09-24T15:37:50.609Z,9.00
2022-09-24T15:40:32.534Z,4.00
2022-09-24T15:43:02.429Z,7.00
2022-09-24T15:45:36.281Z,7.75
2022-09-24T15:48:09.294Z,6.75
2022-09-24T15:50:47.127Z,8.25
2022-09-24T15:53:25.452Z,7.75
2022-09-24T15:56:03.922Z,6.75
2022-09-24T15:58:37.458Z,7.75
2022-09-24T16:01:07.158Z,7.00
2022-09-24T16:03:37.422Z,7.00
2022-09-24T16:06:09.453Z,7.75
2022-09-24T16:08:39.390Z,6.20
2022-09-24T16:11:10.287Z,7.00
2022-09-24T16:13:43.739Z,6.00
2022-09-24T16:16:15.698Z,7.25
2022-09-24T16:18:47.795Z,7.00
2022-09-24T16:21:19.451Z,6.00
2022-09-24T16:23:55.722Z,6.25
2022-09-24T16:26:29.582Z,7.00
2022-09-24T16:29:02.057Z,5.25
2022-09-24T16:31:33.605Z,5.00
2022-09-24T16:34:07.219Z,5.00
2022-09-24T16:36:37.589Z,5.25
2022-09-24T16:39:10.503Z,4.20
2022-09-24T16:41:43.268Z,5.00
2022-09-24T16:44:16.009Z,3.50
2022-09-24T16:46:47.167Z,6.00
2022-09-24T16:49:18.447Z,5.00
2022-09-24T16:51:49.806Z,4.50
2022-09-24T16:54:20.956Z,4.00
2022-09-24T16:56:52.351Z,5.75
2022-09-24T16:59:23.858Z,6.75
2022-09-24T17:02:05.416Z,5.00
2022-09-24T17:04:35.723Z,3.40
2022-09-24T17:07:15.650Z,4.80
2022-09-24T17:10:05.249Z,5.20
2022-09-24T17:12:40.698Z,4.60
2022-09-24T17:15:21.449Z,5.20
2022-09-24T17:18:04.333Z,6.40
2022-09-24T17:20:39.364Z,5.00
2022-09-24T17:23:10.064Z,5.00
2022-09-24T17:25:45.031Z,5.00
2022-09-24T17:28:22.011Z,5.80
2022-09-24T17:31:00.534Z,5.20
2022-09-24T17:33:43.387Z,5.00
2022-09-24T17:36:46.420Z,6.00
2022-09-24T17:39:21.946Z,4.60
2022-09-24T17:42:05.996Z,5.00
2022-09-24T17:44:38.785Z,5.80
2022-09-24T17:47:50.212Z,5.00
2022-09-24T17:50:46.313Z,5.20
2022-09-24T17:56:17.781Z,7.00
2022-09-24T18:01:51.073Z,5.40
2022-09-24T18:04:24.390Z,6.00
2022-09-24T18:06:55.289Z,5.60
2022-09-24T18:09:25.604Z,5.40
2022-09-24T18:11:58.275Z,5.40
2022-09-24T18:14:29.153Z,5.00
2022-09-24T18:17:01.187Z,7.00
2022-09-24T18:19:32.100Z,3.00
2022-09-24T18:22:02.090Z,6.00
2022-09-24T18:24:32.550Z,3.00
2022-09-24T18:27:03.842Z,2.40
2022-09-24T18:29:33.677Z,6.00
2022-09-24T18:32:03.902Z,6.00
2022-09-24T18:34:36.076Z,4.80
2022-09-24T18:37:09.887Z,6.00
2022-09-24T18:39:43.186Z,6.00
2022-09-24T18:42:15.690Z,4.80
2022-09-24T18:44:51.547Z,5.00
2022-09-24T18:47:24.037Z,6.40
2022-09-24T18:49:54.001Z,6.00
2022-09-24T18:52:24.742Z,5.60
2022-09-24T18:54:58.206Z,6.00
2022-09-24T18:57:31.452Z,6.40
2022-09-24T19:00:02.705Z,6.00
2022-09-24T19:02:33.332Z,5.00
2022-09-24T19:05:04.570Z,5.80
2022-09-24T19:07:35.013Z,5.40
2022-09-24T19:10:12.123Z,6.00
2022-09-24T19:12:46.933Z,6.20
2022-09-24T19:15:17.414Z,6.00
2022-09-24T19:17:50.304Z,5.40
2022-09-24T19:20:23.030Z,6.20
2022-09-24T19:23:01.316Z,6.00
2022-09-24T19:25:37.690Z,7.20
2022-09-24T19:28:14.165Z,6.40
2022-09-24T19:30:47.088Z,6.20
2022-09-24T19:33:19.705Z,6.00
2022-09-24T19:36:05.155Z,7.00
2022-09-24T19:38:39.761Z,6.00
2022-09-24T19:41:22.282Z,8.00
2022-09-24T19:44:04.539Z,7.00
2022-09-24T19:46:40.539Z,4.80
2022-09-24T19:49:12.556Z,6.20
2022-09-24T19:51:47.308Z,7.00
2022-09-24T19:54:19.677Z,9.00
2022-09-24T19:56:50.447Z,7.60
2022-09-24T19:59:24.023Z,7.00
2022-09-24T20:01:56.416Z,7.00
2022-09-24T20:04:29.579Z,8.40
2022-09-24T20:07:05.768Z,9.00
2022-09-24T20:09:37.493Z,9.60
2022-09-24T20:12:07.104Z,10.00
2022-09-24T20:14:37.816Z,8.40
2022-09-24T20:17:08.965Z,9.40
2022-09-24T20:19:39.463Z,7.80
2022-09-24T20:22:13.922Z,9.20
2022-09-24T20:24:48.764Z,10.60
2022-09-24T20:27:37.171Z,10.20
2022-09-24T20:30:08.269Z,8.80
2022-09-24T20:32:38.604Z,9.60
2022-09-24T20:35:10.217Z,9.60
2022-09-24T20:37:42.918Z,7.80
2022-09-24T20:40:12.569Z,9.80
2022-09-24T20:42:43.377Z,10.40
2022-09-24T20:45:13.667Z,8.60
2022-09-24T20:47:45.144Z,9.20
2022-09-24T20:50:15.397Z,9.00
2022-09-24T20:52:47.466Z,8.20
2022-09-24T20:55:21.623Z,7.40
2022-09-24T20:57:52.292Z,8.00
2022-09-24T21:00:25.794Z,8.20
2022-09-24T21:02:56.687Z,8.00
2022-09-24T21:05:27.848Z,6.80
2022-09-24T21:07:58.818Z,7.20
2022-09-24T21:10:35.194Z,6.20
2022-09-24T21:13:06.845Z,7.00
2022-09-24T21:15:40.893Z,6.80
2022-09-24T21:18:22.899Z,6.20
2022-09-24T21:20:55.311Z,5.80
2022-09-24T21:23:27.942Z,6.60
2022-09-24T21:26:02.707Z,6.60
2022-09-24T21:28:34.548Z,6.00
2022-09-24T21:31:07.142Z,7.40
2022-09-24T21:33:40.006Z,5.00
2022-09-24T21:36:11.822Z,5.00
2022-09-24T21:38:46.948Z,6.80
2022-09-24T21:41:17.849Z,5.80
2022-09-24T21:43:50.340Z,4.00
2022-09-24T21:46:20.897Z,5.20
2022-09-24T21:48:54.968Z,6.00
2022-09-24T21:51:29.727Z,5.40
2022-09-24T21:54:09.346Z,5.40
2022-09-24T21:56:39.834Z,4.00
2022-09-24T21:59:29.350Z,5.20
2022-09-24T22:02:09.147Z,5.40
2022-09-24T22:04:42.470Z,6.00
2022-09-24T22:07:14.173Z,4.40
2022-09-24T22:09:44.962Z,5.00
2022-09-24T22:12:18.164Z,4.20
2022-09-24T22:14:51.633Z,5.80
2022-09-24T22:17:21.399Z,6.00
2022-09-24T22:19:57.689Z,6.80
2022-09-24T22:22:27.426Z,5.60
2022-09-24T22:24:59.891Z,6.00
2022-09-24T22:27:29.918Z,3.00
2022-09-24T22:30:01.565Z,4.60
2022-09-24T22:32:34.035Z,5.00
2022-09-24T22:35:26.185Z,4.60
2022-09-24T22:37:56.816Z,3.00
2022-09-24T22:40:26.950Z,4.40
2022-09-24T22:43:03.178Z,4.20
2022-09-24T22:45:33.830Z,3.20
2022-09-24T22:48:05.012Z,4.00
2022-09-24T22:50:37.107Z,3.20
2022-09-24T22:53:07.006Z,4.60
2022-09-24T22:55:39.665Z,5.00
2022-09-24T22:58:15.449Z,4.20
2022-09-24T23:00:51.172Z,5.60
2022-09-24T23:03:25.499Z,4.60
2022-09-24T23:05:59.557Z,4.40
2022-09-24T23:08:34.380Z,5.00
2022-09-24T23:11:13.932Z,4.00
2022-09-24T23:13:48.676Z,3.80
2022-09-24T23:16:27.920Z,4.60
2022-09-24T23:19:01.608Z,3.60
2022-09-24T23:21:37.360Z,5.20
2022-09-24T23:24:13.357Z,3.60
2022-09-24T23:26:46.202Z,4.40
2022-09-24T23:29:20.100Z,4.60
2022-09-24T23:31:50.823Z,6.40
2022-09-24T23:34:21.777Z,4.20
2022-09-24T23:36:51.708Z,5.00
2022-09-24T23:39:24.202Z,5.00
2022-09-24T23:41:54.072Z,4.60
2022-09-24T23:44:25.569Z,4.60
2022-09-24T23:46:59.044Z,5.00
2022-09-24T23:49:32.262Z,3.80
2022-09-24T23:52:03.702Z,5.00
2022-09-24T23:54:39.130Z,4.00
2022-09-24T23:57:12.168Z,4.80
2022-09-24T23:59:41.549Z,5.00
